sensor_id;sensor_type;location;lat;lon;timestamp;P1;durP1;ratioP1;P2;durP2;ratioP2
74644;SDS011;63163;55.630;37.594;2023-02-19T00:00:31;10.8;;;6.1;;
74644;SDS011;63163;55.630;37.594;2023-02-19T00:01:32;11.0;;;6.0;;
74644;SDS011;63163;55.630;37.594;2023-02-19T00:02:33;11.5;;;5.8;;
74644;SDS011;63163;55.630;37.594;2023-02-19T00:03:34;11.6;;;5.6;;
74644;SDS011;63163;55.630;37.594;2023-02-19T00:04:35;11.0;;;5.9;;
74644;SDS011;63163;55.630;37.594;2023-02-19T00:05:36;13.1;;;6.0;;
74644;SDS011;63163;55.630;37.594;2023-02-19T00:06:36;11.8;;;6.1;;
74644;SDS011;63163;55.630;37.594;2023-02-19T00:07:37;11.9;;;5.8;;
74644;SDS011;63163;55.630;37.594;2023-02-19T00:08:38;11.7;;;5.9;;
74644;SDS011;63163;55.630;37.594;2023-02-19T00:09:39;11.7;;;5.5;;
74644;SDS011;63163;55.630;37.594;2023-02-19T00:10:39;12.2;;;6.0;;
74644;SDS011;63163;55.630;37.594;2023-02-19T00:11:40;12.1;;;5.6;;
74644;SDS011;63163;55.630;37.594;2023-02-19T00:12:41;11.5;;;5.4;;
74644;SDS011;63163;55.630;37.594;2023-02-19T00:13:42;11.8;;;6.3;;
74644;SDS011;63163;55.630;37.594;2023-02-19T00:14:43;11.4;;;6.2;;
74644;SDS011;63163;55.630;37.594;2023-02-19T00:15:44;10.9;;;5.9;;
74644;SDS011;63163;55.630;37.594;2023-02-19T00:16:44;12.2;;;6.2;;
74644;SDS011;63163;55.630;37.594;2023-02-19T00:17:45;12.2;;;6.3;;
74644;SDS011;63163;55.630;37.594;2023-02-19T00:18:46;11.7;;;5.9;;
74644;SDS011;63163;55.630;37.594;2023-02-19T00:19:47;11.2;;;5.6;;
74644;SDS011;63163;55.630;37.594;2023-02-19T00:20:47;12.0;;;5.9;;
74644;SDS011;63163;55.630;37.594;2023-02-19T00:21:49;11.8;;;5.8;;
74644;SDS011;63163;55.630;37.594;2023-02-19T00:22:50;10.9;;;5.8;;
74644;SDS011;63163;55.630;37.594;2023-02-19T00:23:51;14.3;;;6.4;;
74644;SDS011;63163;55.630;37.594;2023-02-19T00:24:52;11.2;;;5.8;;
74644;SDS011;63163;55.630;37.594;2023-02-19T00:25:53;12.8;;;6.2;;
74644;SDS011;63163;55.630;37.594;2023-02-19T00:26:53;12.3;;;5.4;;
74644;SDS011;63163;55.630;37.594;2023-02-19T00:27:54;13.4;;;5.9;;
74644;SDS011;63163;55.630;37.594;2023-02-19T00:28:55;12.8;;;6.4;;
74644;SDS011;63163;55.630;37.594;2023-02-19T00:29:56;11.4;;;5.5;;
74644;SDS011;63163;55.630;37.594;2023-02-19T00:31:02;11.4;;;5.5;;
74644;SDS011;63163;55.630;37.594;2023-02-19T00:32:03;12.2;;;6.6;;
74644;SDS011;63163;55.630;37.594;2023-02-19T00:33:03;16.3;;;6.2;;
74644;SDS011;63163;55.630;37.594;2023-02-19T00:34:04;13.0;;;6.1;;
74644;SDS011;63163;55.630;37.594;2023-02-19T00:35:05;13.3;;;6.4;;
74644;SDS011;63163;55.630;37.594;2023-02-19T00:36:06;14.7;;;6.2;;
74644;SDS011;63163;55.630;37.594;2023-02-19T00:37:07;14.5;;;6.8;;
74644;SDS011;63163;55.630;37.594;2023-02-19T00:38:07;13.6;;;6.3;;
74644;SDS011;63163;55.630;37.594;2023-02-19T00:39:09;12.8;;;6.6;;
74644;SDS011;63163;55.630;37.594;2023-02-19T00:40:11;12.6;;;5.8;;
74644;SDS011;63163;55.630;37.594;2023-02-19T00:41:12;11.8;;;6.2;;
74644;SDS011;63163;55.630;37.594;2023-02-19T00:42:20;11.4;;;5.7;;
74644;SDS011;63163;55.630;37.594;2023-02-19T00:43:20;11.8;;;6.5;;
74644;SDS011;63163;55.630;37.594;2023-02-19T00:44:21;11.1;;;5.9;;
74644;SDS011;63163;55.630;37.594;2023-02-19T00:45:22;12.6;;;5.5;;
74644;SDS011;63163;55.630;37.594;2023-02-19T00:46:23;12.7;;;6.4;;
74644;SDS011;63163;55.630;37.594;2023-02-19T00:47:24;11.7;;;6.1;;
74644;SDS011;63163;55.630;37.594;2023-02-19T00:48:25;12.5;;;6.2;;
74644;SDS011;63163;55.630;37.594;2023-02-19T00:49:25;12.0;;;6.3;;
74644;SDS011;63163;55.630;37.594;2023-02-19T00:50:26;12.7;;;6.6;;
74644;SDS011;63163;55.630;37.594;2023-02-19T00:51:27;11.3;;;6.2;;
74644;SDS011;63163;55.630;37.594;2023-02-19T00:52:28;12.1;;;6.4;;
74644;SDS011;63163;55.630;37.594;2023-02-19T00:53:29;13.1;;;6.1;;
74644;SDS011;63163;55.630;37.594;2023-02-19T00:54:29;11.4;;;5.9;;
74644;SDS011;63163;55.630;37.594;2023-02-19T00:55:30;11.1;;;5.9;;
74644;SDS011;63163;55.630;37.594;2023-02-19T00:56:31;12.8;;;6.5;;
74644;SDS011;63163;55.630;37.594;2023-02-19T00:57:32;12.3;;;6.1;;
74644;SDS011;63163;55.630;37.594;2023-02-19T00:58:32;15.0;;;6.5;;
74644;SDS011;63163;55.630;37.594;2023-02-19T00:59:33;11.2;;;6.2;;
74644;SDS011;63163;55.630;37.594;2023-02-19T01:00:36;13.4;;;6.7;;
74644;SDS011;63163;55.630;37.594;2023-02-19T01:01:36;14.2;;;6.6;;
74644;SDS011;63163;55.630;37.594;2023-02-19T01:02:37;14.1;;;6.2;;
74644;SDS011;63163;55.630;37.594;2023-02-19T01:03:38;12.9;;;7.0;;
74644;SDS011;63163;55.630;37.594;2023-02-19T01:04:38;14.0;;;6.9;;
74644;SDS011;63163;55.630;37.594;2023-02-19T01:05:39;13.6;;;6.9;;
74644;SDS011;63163;55.630;37.594;2023-02-19T01:06:40;12.2;;;6.5;;
74644;SDS011;63163;55.630;37.594;2023-02-19T01:07:41;13.9;;;7.0;;
74644;SDS011;63163;55.630;37.594;2023-02-19T01:08:41;13.6;;;6.7;;
74644;SDS011;63163;55.630;37.594;2023-02-19T01:09:42;14.6;;;7.3;;
74644;SDS011;63163;55.630;37.594;2023-02-19T01:10:42;14.8;;;7.8;;
74644;SDS011;63163;55.630;37.594;2023-02-19T01:11:43;15.1;;;7.9;;
74644;SDS011;63163;55.630;37.594;2023-02-19T01:12:44;15.2;;;7.9;;
74644;SDS011;63163;55.630;37.594;2023-02-19T01:13:45;13.4;;;7.1;;
74644;SDS011;63163;55.630;37.594;2023-02-19T01:14:45;14.9;;;7.7;;
74644;SDS011;63163;55.630;37.594;2023-02-19T01:15:46;16.7;;;8.4;;
74644;SDS011;63163;55.630;37.594;2023-02-19T01:16:46;15.9;;;7.8;;
74644;SDS011;63163;55.630;37.594;2023-02-19T01:17:47;14.9;;;7.8;;
74644;SDS011;63163;55.630;37.594;2023-02-19T01:18:48;17.7;;;8.0;;
74644;SDS011;63163;55.630;37.594;2023-02-19T01:19:48;17.7;;;8.6;;
74644;SDS011;63163;55.630;37.594;2023-02-19T01:20:49;16.9;;;8.5;;
74644;SDS011;63163;55.630;37.594;2023-02-19T01:21:49;16.8;;;8.5;;
74644;SDS011;63163;55.630;37.594;2023-02-19T01:22:50;18.8;;;8.7;;
74644;SDS011;63163;55.630;37.594;2023-02-19T01:23:51;19.7;;;9.1;;
74644;SDS011;63163;55.630;37.594;2023-02-19T01:24:52;17.9;;;8.3;;
74644;SDS011;63163;55.630;37.594;2023-02-19T01:25:53;18.0;;;8.7;;
74644;SDS011;63163;55.630;37.594;2023-02-19T01:26:53;20.7;;;8.7;;
74644;SDS011;63163;55.630;37.594;2023-02-19T01:27:54;17.2;;;8.6;;
74644;SDS011;63163;55.630;37.594;2023-02-19T01:28:54;15.9;;;8.1;;
74644;SDS011;63163;55.630;37.594;2023-02-19T01:29:55;17.2;;;8.6;;
74644;SDS011;63163;55.630;37.594;2023-02-19T01:30:59;17.2;;;8.6;;
74644;SDS011;63163;55.630;37.594;2023-02-19T01:31:59;21.3;;;9.0;;
74644;SDS011;63163;55.630;37.594;2023-02-19T01:33:00;16.2;;;8.5;;
74644;SDS011;63163;55.630;37.594;2023-02-19T01:34:01;16.4;;;8.5;;
74644;SDS011;63163;55.630;37.594;2023-02-19T01:35:03;15.7;;;8.3;;
74644;SDS011;63163;55.630;37.594;2023-02-19T01:36:04;18.3;;;9.6;;
74644;SDS011;63163;55.630;37.594;2023-02-19T01:37:05;17.7;;;8.5;;
74644;SDS011;63163;55.630;37.594;2023-02-19T01:38:10;20.4;;;9.3;;
74644;SDS011;63163;55.630;37.594;2023-02-19T01:39:10;18.6;;;8.9;;
74644;SDS011;63163;55.630;37.594;2023-02-19T01:40:11;18.3;;;9.1;;
74644;SDS011;63163;55.630;37.594;2023-02-19T01:41:13;17.7;;;9.4;;
74644;SDS011;63163;55.630;37.594;2023-02-19T01:42:15;20.0;;;9.5;;
74644;SDS011;63163;55.630;37.594;2023-02-19T01:43:16;18.4;;;9.4;;
74644;SDS011;63163;55.630;37.594;2023-02-19T01:45:21;16.9;;;8.8;;
74644;SDS011;63163;55.630;37.594;2023-02-19T01:46:23;17.9;;;9.2;;
74644;SDS011;63163;55.630;37.594;2023-02-19T01:47:24;17.0;;;8.7;;
74644;SDS011;63163;55.630;37.594;2023-02-19T01:48:25;18.9;;;8.8;;
74644;SDS011;63163;55.630;37.594;2023-02-19T01:49:27;17.1;;;9.2;;
74644;SDS011;63163;55.630;37.594;2023-02-19T01:50:29;16.2;;;9.0;;
74644;SDS011;63163;55.630;37.594;2023-02-19T01:51:32;17.0;;;9.0;;
74644;SDS011;63163;55.630;37.594;2023-02-19T01:52:33;16.8;;;8.8;;
74644;SDS011;63163;55.630;37.594;2023-02-19T01:53:36;19.3;;;10.0;;
74644;SDS011;63163;55.630;37.594;2023-02-19T01:54:37;21.1;;;9.7;;
74644;SDS011;63163;55.630;37.594;2023-02-19T01:55:40;19.4;;;9.9;;
74644;SDS011;63163;55.630;37.594;2023-02-19T01:56:41;19.1;;;9.3;;
74644;SDS011;63163;55.630;37.594;2023-02-19T01:57:43;21.5;;;9.3;;
74644;SDS011;63163;55.630;37.594;2023-02-19T01:58:45;19.2;;;9.3;;
74644;SDS011;63163;55.630;37.594;2023-02-19T01:59:46;19.0;;;8.7;;
74644;SDS011;63163;55.630;37.594;2023-02-19T02:00:49;21.6;;;10.1;;
74644;SDS011;63163;55.630;37.594;2023-02-19T02:01:51;18.4;;;9.7;;
74644;SDS011;63163;55.630;37.594;2023-02-19T02:02:51;18.5;;;8.7;;
74644;SDS011;63163;55.630;37.594;2023-02-19T02:03:53;19.2;;;9.3;;
74644;SDS011;63163;55.630;37.594;2023-02-19T02:04:54;16.2;;;8.4;;
74644;SDS011;63163;55.630;37.594;2023-02-19T02:05:56;17.4;;;9.2;;
74644;SDS011;63163;55.630;37.594;2023-02-19T02:06:58;18.0;;;9.3;;
74644;SDS011;63163;55.630;37.594;2023-02-19T02:08:01;19.5;;;9.3;;
74644;SDS011;63163;55.630;37.594;2023-02-19T02:11:09;29.4;;;15.1;;
74644;SDS011;63163;55.630;37.594;2023-02-19T02:12:09;19.8;;;10.6;;
74644;SDS011;63163;55.630;37.594;2023-02-19T02:13:12;19.8;;;9.9;;
74644;SDS011;63163;55.630;37.594;2023-02-19T02:14:12;15.1;;;8.4;;
74644;SDS011;63163;55.630;37.594;2023-02-19T02:15:14;19.5;;;8.1;;
74644;SDS011;63163;55.630;37.594;2023-02-19T02:16:18;16.3;;;8.2;;
74644;SDS011;63163;55.630;37.594;2023-02-19T02:17:21;15.2;;;8.1;;
74644;SDS011;63163;55.630;37.594;2023-02-19T02:18:27;17.9;;;8.6;;
74644;SDS011;63163;55.630;37.594;2023-02-19T02:19:35;15.0;;;7.6;;
74644;SDS011;63163;55.630;37.594;2023-02-19T02:20:47;14.4;;;7.6;;
74644;SDS011;63163;55.630;37.594;2023-02-19T02:21:54;16.4;;;8.2;;
74644;SDS011;63163;55.630;37.594;2023-02-19T02:22:59;13.4;;;7.0;;
74644;SDS011;63163;55.630;37.594;2023-02-19T02:24:05;15.8;;;7.5;;
74644;SDS011;63163;55.630;37.594;2023-02-19T02:25:15;15.3;;;7.6;;
74644;SDS011;63163;55.630;37.594;2023-02-19T02:26:24;13.1;;;7.0;;
74644;SDS011;63163;55.630;37.594;2023-02-19T02:27:34;13.3;;;6.5;;
74644;SDS011;63163;55.630;37.594;2023-02-19T02:28:45;14.9;;;7.3;;
74644;SDS011;63163;55.630;37.594;2023-02-19T02:30:52;13.3;;;6.5;;
74644;SDS011;63163;55.630;37.594;2023-02-19T02:31:55;12.4;;;6.3;;
74644;SDS011;63163;55.630;37.594;2023-02-19T02:32:57;14.2;;;7.1;;
74644;SDS011;63163;55.630;37.594;2023-02-19T02:34:02;12.1;;;6.5;;
74644;SDS011;63163;55.630;37.594;2023-02-19T02:35:05;13.4;;;6.9;;
74644;SDS011;63163;55.630;37.594;2023-02-19T02:36:07;13.6;;;6.9;;
74644;SDS011;63163;55.630;37.594;2023-02-19T02:37:09;14.2;;;6.6;;
74644;SDS011;63163;55.630;37.594;2023-02-19T02:38:11;11.9;;;6.4;;
74644;SDS011;63163;55.630;37.594;2023-02-19T02:39:14;13.7;;;6.5;;
74644;SDS011;63163;55.630;37.594;2023-02-19T02:40:15;12.8;;;6.6;;
74644;SDS011;63163;55.630;37.594;2023-02-19T02:41:17;11.6;;;6.2;;
74644;SDS011;63163;55.630;37.594;2023-02-19T02:42:17;13.9;;;6.8;;
74644;SDS011;63163;55.630;37.594;2023-02-19T02:43:33;12.7;;;6.4;;
74644;SDS011;63163;55.630;37.594;2023-02-19T02:44:34;17.6;;;6.6;;
74644;SDS011;63163;55.630;37.594;2023-02-19T02:45:35;13.4;;;6.2;;
74644;SDS011;63163;55.630;37.594;2023-02-19T02:46:37;11.3;;;6.4;;
74644;SDS011;63163;55.630;37.594;2023-02-19T02:47:40;14.0;;;6.4;;
74644;SDS011;63163;55.630;37.594;2023-02-19T02:48:42;13.0;;;6.5;;
74644;SDS011;63163;55.630;37.594;2023-02-19T02:49:44;13.4;;;6.7;;
74644;SDS011;63163;55.630;37.594;2023-02-19T02:51:06;12.2;;;6.3;;
74644;SDS011;63163;55.630;37.594;2023-02-19T02:52:07;14.5;;;6.5;;
74644;SDS011;63163;55.630;37.594;2023-02-19T02:56:02;11.8;;;6.2;;
74644;SDS011;63163;55.630;37.594;2023-02-19T02:57:03;11.2;;;6.0;;
74644;SDS011;63163;55.630;37.594;2023-02-19T02:58:05;10.8;;;6.0;;
74644;SDS011;63163;55.630;37.594;2023-02-19T02:59:07;12.1;;;6.2;;
74644;SDS011;63163;55.630;37.594;2023-02-19T03:00:09;13.4;;;6.6;;
74644;SDS011;63163;55.630;37.594;2023-02-19T03:01:11;13.1;;;6.4;;
74644;SDS011;63163;55.630;37.594;2023-02-19T03:03:18;11.7;;;5.6;;
74644;SDS011;63163;55.630;37.594;2023-02-19T03:04:23;10.8;;;6.4;;
74644;SDS011;63163;55.630;37.594;2023-02-19T03:05:25;11.7;;;5.7;;
74644;SDS011;63163;55.630;37.594;2023-02-19T03:06:59;11.0;;;5.6;;
74644;SDS011;63163;55.630;37.594;2023-02-19T03:08:03;12.2;;;5.8;;
74644;SDS011;63163;55.630;37.594;2023-02-19T03:09:06;10.8;;;5.4;;
74644;SDS011;63163;55.630;37.594;2023-02-19T03:10:09;10.5;;;5.7;;
74644;SDS011;63163;55.630;37.594;2023-02-19T03:11:11;11.6;;;6.2;;
74644;SDS011;63163;55.630;37.594;2023-02-19T03:14:20;11.8;;;5.8;;
74644;SDS011;63163;55.630;37.594;2023-02-19T03:17:30;13.8;;;6.8;;
74644;SDS011;63163;55.630;37.594;2023-02-19T03:20:40;13.3;;;6.3;;
74644;SDS011;63163;55.630;37.594;2023-02-19T03:21:44;12.3;;;6.3;;
74644;SDS011;63163;55.630;37.594;2023-02-19T03:22:45;13.1;;;6.2;;
74644;SDS011;63163;55.630;37.594;2023-02-19T03:23:47;11.5;;;6.1;;
74644;SDS011;63163;55.630;37.594;2023-02-19T03:26:56;11.6;;;6.4;;
74644;SDS011;63163;55.630;37.594;2023-02-19T03:27:59;11.9;;;6.2;;
74644;SDS011;63163;55.630;37.594;2023-02-19T03:29:00;12.4;;;5.6;;
74644;SDS011;63163;55.630;37.594;2023-02-19T03:30:34;12.4;;;5.6;;
74644;SDS011;63163;55.630;37.594;2023-02-19T03:31:36;13.5;;;6.3;;
74644;SDS011;63163;55.630;37.594;2023-02-19T03:32:38;11.6;;;6.1;;
74644;SDS011;63163;55.630;37.594;2023-02-19T03:33:41;12.9;;;6.3;;
74644;SDS011;63163;55.630;37.594;2023-02-19T03:34:43;12.7;;;6.5;;
74644;SDS011;63163;55.630;37.594;2023-02-19T03:35:46;14.3;;;7.3;;
74644;SDS011;63163;55.630;37.594;2023-02-19T03:36:51;13.4;;;7.0;;
74644;SDS011;63163;55.630;37.594;2023-02-19T03:37:54;13.9;;;6.7;;
74644;SDS011;63163;55.630;37.594;2023-02-19T03:38:57;12.2;;;6.2;;
74644;SDS011;63163;55.630;37.594;2023-02-19T03:39:59;10.7;;;5.8;;
74644;SDS011;63163;55.630;37.594;2023-02-19T03:41:04;12.4;;;6.2;;
74644;SDS011;63163;55.630;37.594;2023-02-19T03:42:07;10.3;;;5.9;;
74644;SDS011;63163;55.630;37.594;2023-02-19T03:43:13;12.1;;;6.2;;
74644;SDS011;63163;55.630;37.594;2023-02-19T03:44:17;12.9;;;6.9;;
74644;SDS011;63163;55.630;37.594;2023-02-19T03:45:26;12.8;;;6.3;;
74644;SDS011;63163;55.630;37.594;2023-02-19T03:46:32;11.0;;;6.3;;
74644;SDS011;63163;55.630;37.594;2023-02-19T03:47:35;14.0;;;6.9;;
74644;SDS011;63163;55.630;37.594;2023-02-19T03:48:37;12.7;;;6.0;;
74644;SDS011;63163;55.630;37.594;2023-02-19T03:49:41;12.6;;;6.6;;
74644;SDS011;63163;55.630;37.594;2023-02-19T03:50:43;14.6;;;6.7;;
74644;SDS011;63163;55.630;37.594;2023-02-19T03:51:47;13.3;;;6.9;;
74644;SDS011;63163;55.630;37.594;2023-02-19T03:52:51;12.4;;;6.5;;
74644;SDS011;63163;55.630;37.594;2023-02-19T03:53:56;11.3;;;6.7;;
74644;SDS011;63163;55.630;37.594;2023-02-19T03:55:02;14.8;;;6.9;;
74644;SDS011;63163;55.630;37.594;2023-02-19T03:56:06;14.1;;;6.8;;
74644;SDS011;63163;55.630;37.594;2023-02-19T03:57:10;12.7;;;6.8;;
74644;SDS011;63163;55.630;37.594;2023-02-19T03:58:13;12.4;;;6.5;;
74644;SDS011;63163;55.630;37.594;2023-02-19T03:59:15;20.7;;;7.6;;
74644;SDS011;63163;55.630;37.594;2023-02-19T04:00:17;13.0;;;6.9;;
74644;SDS011;63163;55.630;37.594;2023-02-19T04:01:24;13.0;;;6.9;;
74644;SDS011;63163;55.630;37.594;2023-02-19T04:02:27;12.5;;;6.8;;
74644;SDS011;63163;55.630;37.594;2023-02-19T04:03:31;13.4;;;6.7;;
74644;SDS011;63163;55.630;37.594;2023-02-19T04:04:33;14.4;;;6.9;;
74644;SDS011;63163;55.630;37.594;2023-02-19T04:05:36;15.8;;;6.9;;
74644;SDS011;63163;55.630;37.594;2023-02-19T04:06:38;12.2;;;6.7;;
74644;SDS011;63163;55.630;37.594;2023-02-19T04:07:42;12.5;;;6.9;;
74644;SDS011;63163;55.630;37.594;2023-02-19T04:08:45;15.5;;;7.5;;
74644;SDS011;63163;55.630;37.594;2023-02-19T04:09:47;13.4;;;7.1;;
74644;SDS011;63163;55.630;37.594;2023-02-19T04:10:49;13.6;;;6.8;;
74644;SDS011;63163;55.630;37.594;2023-02-19T04:11:50;14.8;;;7.0;;
74644;SDS011;63163;55.630;37.594;2023-02-19T04:12:54;16.2;;;7.3;;
74644;SDS011;63163;55.630;37.594;2023-02-19T04:13:57;13.8;;;7.4;;
74644;SDS011;63163;55.630;37.594;2023-02-19T04:15:00;13.3;;;6.9;;
74644;SDS011;63163;55.630;37.594;2023-02-19T04:16:05;14.4;;;7.3;;
74644;SDS011;63163;55.630;37.594;2023-02-19T04:17:08;13.8;;;6.8;;
74644;SDS011;63163;55.630;37.594;2023-02-19T04:18:11;14.0;;;6.9;;
74644;SDS011;63163;55.630;37.594;2023-02-19T04:19:14;12.5;;;6.4;;
74644;SDS011;63163;55.630;37.594;2023-02-19T04:20:17;12.5;;;6.7;;
74644;SDS011;63163;55.630;37.594;2023-02-19T04:21:19;12.7;;;7.2;;
74644;SDS011;63163;55.630;37.594;2023-02-19T04:22:20;11.9;;;6.7;;
74644;SDS011;63163;55.630;37.594;2023-02-19T04:23:22;13.9;;;6.7;;
74644;SDS011;63163;55.630;37.594;2023-02-19T04:24:25;14.9;;;7.6;;
74644;SDS011;63163;55.630;37.594;2023-02-19T04:25:26;13.2;;;6.6;;
74644;SDS011;63163;55.630;37.594;2023-02-19T04:26:28;13.3;;;6.4;;
74644;SDS011;63163;55.630;37.594;2023-02-19T04:27:30;13.9;;;6.7;;
74644;SDS011;63163;55.630;37.594;2023-02-19T04:28:32;11.8;;;6.8;;
74644;SDS011;63163;55.630;37.594;2023-02-19T04:29:32;11.9;;;6.4;;
74644;SDS011;63163;55.630;37.594;2023-02-19T04:30:33;11.9;;;6.4;;
74644;SDS011;63163;55.630;37.594;2023-02-19T04:31:34;11.9;;;6.3;;
74644;SDS011;63163;55.630;37.594;2023-02-19T04:32:34;14.5;;;7.0;;
74644;SDS011;63163;55.630;37.594;2023-02-19T04:33:35;10.5;;;6.0;;
74644;SDS011;63163;55.630;37.594;2023-02-19T04:34:36;12.4;;;7.3;;
74644;SDS011;63163;55.630;37.594;2023-02-19T04:35:36;13.9;;;7.5;;
74644;SDS011;63163;55.630;37.594;2023-02-19T04:36:37;12.8;;;6.9;;
74644;SDS011;63163;55.630;37.594;2023-02-19T04:37:38;12.3;;;6.6;;
74644;SDS011;63163;55.630;37.594;2023-02-19T04:38:39;12.6;;;6.9;;
74644;SDS011;63163;55.630;37.594;2023-02-19T04:39:39;14.1;;;6.3;;
74644;SDS011;63163;55.630;37.594;2023-02-19T04:40:40;12.6;;;6.9;;
74644;SDS011;63163;55.630;37.594;2023-02-19T04:41:40;13.4;;;6.7;;
74644;SDS011;63163;55.630;37.594;2023-02-19T04:42:41;13.6;;;6.8;;
74644;SDS011;63163;55.630;37.594;2023-02-19T04:43:42;11.5;;;6.7;;
74644;SDS011;63163;55.630;37.594;2023-02-19T04:44:42;14.3;;;7.4;;
74644;SDS011;63163;55.630;37.594;2023-02-19T04:45:43;16.7;;;7.4;;
74644;SDS011;63163;55.630;37.594;2023-02-19T04:46:43;12.8;;;6.8;;
74644;SDS011;63163;55.630;37.594;2023-02-19T04:47:44;14.4;;;6.6;;
74644;SDS011;63163;55.630;37.594;2023-02-19T04:48:45;14.8;;;7.3;;
74644;SDS011;63163;55.630;37.594;2023-02-19T04:49:45;15.7;;;8.6;;
74644;SDS011;63163;55.630;37.594;2023-02-19T04:50:46;16.0;;;8.3;;
74644;SDS011;63163;55.630;37.594;2023-02-19T04:51:47;14.9;;;7.2;;
74644;SDS011;63163;55.630;37.594;2023-02-19T04:52:47;12.7;;;6.7;;
74644;SDS011;63163;55.630;37.594;2023-02-19T04:53:48;15.0;;;8.1;;
74644;SDS011;63163;55.630;37.594;2023-02-19T04:54:48;13.7;;;7.5;;
74644;SDS011;63163;55.630;37.594;2023-02-19T04:55:49;12.8;;;7.2;;
74644;SDS011;63163;55.630;37.594;2023-02-19T04:56:52;14.1;;;6.4;;
74644;SDS011;63163;55.630;37.594;2023-02-19T04:57:53;12.2;;;6.4;;
74644;SDS011;63163;55.630;37.594;2023-02-19T04:58:53;11.0;;;6.6;;
74644;SDS011;63163;55.630;37.594;2023-02-19T04:59:55;11.2;;;6.1;;
74644;SDS011;63163;55.630;37.594;2023-02-19T05:00:55;14.2;;;6.6;;
74644;SDS011;63163;55.630;37.594;2023-02-19T05:01:56;14.0;;;7.2;;
74644;SDS011;63163;55.630;37.594;2023-02-19T05:02:57;13.4;;;6.6;;
74644;SDS011;63163;55.630;37.594;2023-02-19T05:03:57;12.2;;;6.4;;
74644;SDS011;63163;55.630;37.594;2023-02-19T05:04:58;13.6;;;7.2;;
74644;SDS011;63163;55.630;37.594;2023-02-19T05:06:00;14.1;;;6.5;;
74644;SDS011;63163;55.630;37.594;2023-02-19T05:07:01;16.1;;;6.9;;
74644;SDS011;63163;55.630;37.594;2023-02-19T05:08:02;14.7;;;6.9;;
74644;SDS011;63163;55.630;37.594;2023-02-19T05:09:03;12.5;;;6.4;;
74644;SDS011;63163;55.630;37.594;2023-02-19T05:10:03;12.3;;;7.1;;
74644;SDS011;63163;55.630;37.594;2023-02-19T05:11:05;13.1;;;6.7;;
74644;SDS011;63163;55.630;37.594;2023-02-19T05:12:06;14.1;;;7.3;;
74644;SDS011;63163;55.630;37.594;2023-02-19T05:13:06;13.4;;;6.6;;
74644;SDS011;63163;55.630;37.594;2023-02-19T05:14:07;14.4;;;7.1;;
74644;SDS011;63163;55.630;37.594;2023-02-19T05:15:08;14.4;;;6.4;;
74644;SDS011;63163;55.630;37.594;2023-02-19T05:16:09;13.4;;;7.1;;
74644;SDS011;63163;55.630;37.594;2023-02-19T05:17:10;11.3;;;6.1;;
74644;SDS011;63163;55.630;37.594;2023-02-19T05:18:10;11.3;;;6.2;;
74644;SDS011;63163;55.630;37.594;2023-02-19T05:19:11;10.9;;;6.3;;
74644;SDS011;63163;55.630;37.594;2023-02-19T05:20:12;14.6;;;6.1;;
74644;SDS011;63163;55.630;37.594;2023-02-19T05:21:13;11.1;;;5.7;;
74644;SDS011;63163;55.630;37.594;2023-02-19T05:22:14;12.2;;;6.3;;
74644;SDS011;63163;55.630;37.594;2023-02-19T05:23:14;13.4;;;6.1;;
74644;SDS011;63163;55.630;37.594;2023-02-19T05:24:15;12.5;;;6.5;;
74644;SDS011;63163;55.630;37.594;2023-02-19T05:25:15;12.9;;;6.4;;
74644;SDS011;63163;55.630;37.594;2023-02-19T05:26:17;10.5;;;5.7;;
74644;SDS011;63163;55.630;37.594;2023-02-19T05:27:18;14.4;;;6.7;;
74644;SDS011;63163;55.630;37.594;2023-02-19T05:28:18;11.4;;;6.0;;
74644;SDS011;63163;55.630;37.594;2023-02-19T05:29:19;12.3;;;6.1;;
74644;SDS011;63163;55.630;37.594;2023-02-19T05:30:20;12.3;;;6.1;;
74644;SDS011;63163;55.630;37.594;2023-02-19T05:31:20;14.6;;;6.7;;
74644;SDS011;63163;55.630;37.594;2023-02-19T05:32:21;11.3;;;6.1;;
74644;SDS011;63163;55.630;37.594;2023-02-19T05:33:22;11.5;;;5.8;;
74644;SDS011;63163;55.630;37.594;2023-02-19T05:34:23;10.4;;;5.8;;
74644;SDS011;63163;55.630;37.594;2023-02-19T05:35:24;12.5;;;6.6;;
74644;SDS011;63163;55.630;37.594;2023-02-19T05:36:25;13.0;;;6.1;;
74644;SDS011;63163;55.630;37.594;2023-02-19T05:37:25;10.6;;;5.9;;
74644;SDS011;63163;55.630;37.594;2023-02-19T05:38:26;13.1;;;6.2;;
74644;SDS011;63163;55.630;37.594;2023-02-19T05:39:27;12.6;;;6.2;;
74644;SDS011;63163;55.630;37.594;2023-02-19T05:40:27;12.6;;;6.5;;
74644;SDS011;63163;55.630;37.594;2023-02-19T05:41:28;11.0;;;6.2;;
74644;SDS011;63163;55.630;37.594;2023-02-19T05:42:29;11.4;;;6.1;;
74644;SDS011;63163;55.630;37.594;2023-02-19T05:43:30;9.9;;;5.5;;
74644;SDS011;63163;55.630;37.594;2023-02-19T05:44:31;10.7;;;6.0;;
74644;SDS011;63163;55.630;37.594;2023-02-19T05:45:32;11.4;;;6.1;;
74644;SDS011;63163;55.630;37.594;2023-02-19T05:46:32;12.3;;;6.4;;
74644;SDS011;63163;55.630;37.594;2023-02-19T05:47:33;10.6;;;6.3;;
74644;SDS011;63163;55.630;37.594;2023-02-19T05:48:34;13.3;;;6.7;;
74644;SDS011;63163;55.630;37.594;2023-02-19T05:49:35;15.1;;;7.0;;
74644;SDS011;63163;55.630;37.594;2023-02-19T05:50:36;11.9;;;6.5;;
74644;SDS011;63163;55.630;37.594;2023-02-19T05:51:36;13.4;;;5.9;;
74644;SDS011;63163;55.630;37.594;2023-02-19T05:52:37;12.6;;;6.1;;
74644;SDS011;63163;55.630;37.594;2023-02-19T05:53:38;11.6;;;6.2;;
74644;SDS011;63163;55.630;37.594;2023-02-19T05:54:39;12.1;;;6.1;;
74644;SDS011;63163;55.630;37.594;2023-02-19T05:55:39;11.3;;;5.9;;
74644;SDS011;63163;55.630;37.594;2023-02-19T05:56:40;10.5;;;5.5;;
74644;SDS011;63163;55.630;37.594;2023-02-19T05:57:42;11.3;;;5.4;;
74644;SDS011;63163;55.630;37.594;2023-02-19T05:58:43;10.7;;;5.6;;
74644;SDS011;63163;55.630;37.594;2023-02-19T05:59:43;12.1;;;6.2;;
74644;SDS011;63163;55.630;37.594;2023-02-19T06:00:44;10.3;;;5.9;;
74644;SDS011;63163;55.630;37.594;2023-02-19T06:01:45;11.2;;;5.8;;
74644;SDS011;63163;55.630;37.594;2023-02-19T06:02:46;11.8;;;5.7;;
74644;SDS011;63163;55.630;37.594;2023-02-19T06:03:46;10.3;;;5.7;;
74644;SDS011;63163;55.630;37.594;2023-02-19T06:04:47;11.5;;;5.7;;
74644;SDS011;63163;55.630;37.594;2023-02-19T06:05:48;10.3;;;5.4;;
74644;SDS011;63163;55.630;37.594;2023-02-19T06:06:48;9.4;;;5.4;;
74644;SDS011;63163;55.630;37.594;2023-02-19T06:07:49;13.0;;;6.0;;
74644;SDS011;63163;55.630;37.594;2023-02-19T06:08:50;12.7;;;5.4;;
74644;SDS011;63163;55.630;37.594;2023-02-19T06:09:50;10.2;;;5.5;;
74644;SDS011;63163;55.630;37.594;2023-02-19T06:10:51;10.5;;;5.6;;
74644;SDS011;63163;55.630;37.594;2023-02-19T06:11:51;11.4;;;5.9;;
74644;SDS011;63163;55.630;37.594;2023-02-19T06:12:52;11.1;;;5.8;;
74644;SDS011;63163;55.630;37.594;2023-02-19T06:13:53;12.7;;;5.5;;
74644;SDS011;63163;55.630;37.594;2023-02-19T06:14:54;11.1;;;5.2;;
74644;SDS011;63163;55.630;37.594;2023-02-19T06:15:54;13.2;;;5.7;;
74644;SDS011;63163;55.630;37.594;2023-02-19T06:16:55;9.5;;;5.3;;
74644;SDS011;63163;55.630;37.594;2023-02-19T06:17:56;9.9;;;5.0;;
74644;SDS011;63163;55.630;37.594;2023-02-19T06:18:56;10.0;;;5.0;;
74644;SDS011;63163;55.630;37.594;2023-02-19T06:19:57;9.1;;;5.2;;
74644;SDS011;63163;55.630;37.594;2023-02-19T06:20:59;10.2;;;5.1;;
74644;SDS011;63163;55.630;37.594;2023-02-19T06:22:00;10.1;;;5.6;;
74644;SDS011;63163;55.630;37.594;2023-02-19T06:23:00;10.2;;;5.3;;
74644;SDS011;63163;55.630;37.594;2023-02-19T06:24:03;10.4;;;5.3;;
74644;SDS011;63163;55.630;37.594;2023-02-19T06:25:04;10.9;;;5.0;;
74644;SDS011;63163;55.630;37.594;2023-02-19T06:26:07;10.9;;;5.0;;
74644;SDS011;63163;55.630;37.594;2023-02-19T06:27:08;11.2;;;5.3;;
74644;SDS011;63163;55.630;37.594;2023-02-19T06:28:09;11.5;;;5.0;;
74644;SDS011;63163;55.630;37.594;2023-02-19T06:29:09;11.6;;;5.4;;
74644;SDS011;63163;55.630;37.594;2023-02-19T06:30:10;11.6;;;5.4;;